sensor_id;sensor_type;location;lat;lon;timestamp;pressure;altitude;pressure_sealevel;temperature;humidity
22283;BME280;11310;51.528;21.204;2023-03-03T00:01:10;100364.28;;;-1.80;100.00
22283;BME280;11310;51.528;21.204;2023-03-03T00:03:38;100360.81;;;-1.82;100.00
22283;BME280;11310;51.528;21.204;2023-03-03T00:06:09;100355.69;;;-1.80;100.00
22283;BME280;11310;51.528;21.204;2023-03-03T00:08:38;100357.41;;;-1.79;100.00
22283;BME280;11310;51.528;21.204;2023-03-03T00:11:08;100350.53;;;-1.82;100.00
22283;BME280;11310;51.528;21.204;2023-03-03T00:13:43;100363.34;;;-1.88;100.00
22283;BME280;11310;51.528;21.204;2023-03-03T00:16:14;100357.28;;;-1.94;100.00
22283;BME280;11310;51.528;21.204;2023-03-03T00:18:45;100355.53;;;-1.98;100.00
22283;BME280;11310;51.528;21.204;2023-03-03T00:21:24;100346.88;;;-2.08;100.00
22283;BME280;11310;51.528;21.204;2023-03-03T00:24:14;100342.53;;;-2.15;100.00
22283;BME280;11310;51.528;21.204;2023-03-03T00:26:45;100339.06;;;-2.20;100.00
22283;BME280;11310;51.528;21.204;2023-03-03T00:29:28;100333.88;;;-2.23;100.00
22283;BME280;11310;51.528;21.204;2023-03-03T00:32:19;100340.72;;;-2.25;100.00
22283;BME280;11310;51.528;21.204;2023-03-03T00:34:49;100338.91;;;-2.32;100.00
22283;BME280;11310;51.528;21.204;2023-03-03T00:37:31;100332.91;;;-2.35;100.00
22283;BME280;11310;51.528;21.204;2023-03-03T00:40:18;100330.25;;;-2.43;100.00
22283;BME280;11310;51.528;21.204;2023-03-03T00:42:51;100331.03;;;-2.48;100.00
22283;BME280;11310;51.528;21.204;2023-03-03T00:45:29;100331.00;;;-2.53;100.00
22283;BME280;11310;51.528;21.204;2023-03-03T00:48:10;100324.13;;;-2.57;100.00
22283;BME280;11310;51.528;21.204;2023-03-03T00:50:44;100322.38;;;-2.59;100.00
22283;BME280;11310;51.528;21.204;2023-03-03T00:53:13;100319.75;;;-2.62;100.00
22283;BME280;11310;51.528;21.204;2023-03-03T00:55:44;100314.59;;;-2.67;100.00
22283;BME280;11310;51.528;21.204;2023-03-03T00:58:14;100319.72;;;-2.67;100.00
22283;BME280;11310;51.528;21.204;2023-03-03T01:00:49;100318.84;;;-2.69;100.00
22283;BME280;11310;51.528;21.204;2023-03-03T01:03:23;100317.06;;;-2.73;100.00
22283;BME280;11310;51.528;21.204;2023-03-03T01:05:53;100305.06;;;-2.75;100.00
22283;BME280;11310;51.528;21.204;2023-03-03T01:08:22;100309.38;;;-2.74;100.00
22283;BME280;11310;51.528;21.204;2023-03-03T01:10:53;100304.25;;;-2.71;100.00
22283;BME280;11310;51.528;21.204;2023-03-03T01:13:25;100302.56;;;-2.71;100.00
22283;BME280;11310;51.528;21.204;2023-03-03T01:15:55;100304.25;;;-2.71;100.00
22283;BME280;11310;51.528;21.204;2023-03-03T01:18:27;100305.94;;;-2.75;100.00
22283;BME280;11310;51.528;21.204;2023-03-03T01:20:55;100304.97;;;-2.83;100.00
22283;BME280;11310;51.528;21.204;2023-03-03T01:23:24;100298.06;;;-2.91;100.00
22283;BME280;11310;51.528;21.204;2023-03-03T01:25:53;100281.66;;;-3.04;100.00
22283;BME280;11310;51.528;21.204;2023-03-03T01:28:22;100289.34;;;-3.04;100.00
22283;BME280;11310;51.528;21.204;2023-03-03T01:30:51;100290.16;;;-3.05;100.00
22283;BME280;11310;51.528;21.204;2023-03-03T01:33:21;100298.81;;;-2.98;100.00
22283;BME280;11310;51.528;21.204;2023-03-03T01:35:49;100291.97;;;-2.99;100.00
22283;BME280;11310;51.528;21.204;2023-03-03T01:38:18;100297.06;;;-3.04;100.00
22283;BME280;11310;51.528;21.204;2023-03-03T01:40:51;100290.16;;;-3.08;100.00
22283;BME280;11310;51.528;21.204;2023-03-03T01:43:21;100284.97;;;-3.11;100.00
22283;BME280;11310;51.528;21.204;2023-03-03T01:49:05;100285.72;;;-3.21;100.00
22283;BME280;11310;51.528;21.204;2023-03-03T01:51:37;100292.47;;;-3.27;100.00
22283;BME280;11310;51.528;21.204;2023-03-03T01:54:14;100279.53;;;-3.35;100.00
22283;BME280;11310;51.528;21.204;2023-03-03T01:56:43;100277.00;;;-3.33;100.00
22283;BME280;11310;51.528;21.204;2023-03-03T01:59:15;100284.66;;;-3.35;100.00
22283;BME280;11310;51.528;21.204;2023-03-03T02:01:47;100276.06;;;-3.37;100.00
22283;BME280;11310;51.528;21.204;2023-03-03T02:04:18;100270.94;;;-3.40;100.00
22283;BME280;11310;51.528;21.204;2023-03-03T02:06:51;100268.31;;;-3.43;100.00
22283;BME280;11310;51.528;21.204;2023-03-03T02:09:27;100273.41;;;-3.44;100.00
22283;BME280;11310;51.528;21.204;2023-03-03T02:12:00;100282.84;;;-3.42;100.00
22283;BME280;11310;51.528;21.204;2023-03-03T02:14:30;100270.88;;;-3.43;100.00
22283;BME280;11310;51.528;21.204;2023-03-03T02:16:59;100254.63;;;-3.43;100.00
22283;BME280;11310;51.528;21.204;2023-03-03T02:19:40;100261.47;;;-3.44;100.00
22283;BME280;11310;51.528;21.204;2023-03-03T02:22:13;100263.16;;;-3.44;100.00
22283;BME280;11310;51.528;21.204;2023-03-03T02:24:48;100270.88;;;-3.43;100.00
22283;BME280;11310;51.528;21.204;2023-03-03T02:27:21;100264.88;;;-3.43;100.00
22283;BME280;11310;51.528;21.204;2023-03-03T02:29:50;100266.59;;;-3.44;100.00
22283;BME280;11310;51.528;21.204;2023-03-03T02:32:20;100276.88;;;-3.42;100.00
22283;BME280;11310;51.528;21.204;2023-03-03T02:34:50;100272.59;;;-3.42;100.00
22283;BME280;11310;51.528;21.204;2023-03-03T02:37:19;100269.19;;;-3.42;100.00
22283;BME280;11310;51.528;21.204;2023-03-03T02:39:48;100264.03;;;-3.44;100.00
22283;BME280;11310;51.528;21.204;2023-03-03T02:42:21;100264.03;;;-3.44;100.00
22283;BME280;11310;51.528;21.204;2023-03-03T02:44:54;100270.03;;;-3.42;100.00
22283;BME280;11310;51.528;21.204;2023-03-03T02:47:23;100265.72;;;-3.44;100.00
22283;BME280;11310;51.528;21.204;2023-03-03T02:49:52;100264.84;;;-3.46;100.00
22283;BME280;11310;51.528;21.204;2023-03-03T02:52:20;100263.13;;;-3.46;100.00
22283;BME280;11310;51.528;21.204;2023-03-03T02:54:50;100262.25;;;-3.48;100.00
22283;BME280;11310;51.528;21.204;2023-03-03T02:57:18;100260.56;;;-3.49;100.00
22283;BME280;11310;51.528;21.204;2023-03-03T02:59:49;100258.81;;;-3.48;100.00
22283;BME280;11310;51.528;21.204;2023-03-03T03:02:17;100257.13;;;-3.48;100.00
22283;BME280;11310;51.528;21.204;2023-03-03T03:04:46;100249.41;;;-3.49;100.00
22283;BME280;11310;51.528;21.204;2023-03-03T03:07:19;100243.47;;;-3.50;100.00
22283;BME280;11310;51.528;21.204;2023-03-03T03:09:48;100240.03;;;-3.49;100.00
22283;BME280;11310;51.528;21.204;2023-03-03T03:12:17;100246.91;;;-3.46;100.00
22283;BME280;11310;51.528;21.204;2023-03-03T03:14:52;100240.06;;;-3.46;100.00
22283;BME280;11310;51.528;21.204;2023-03-03T03:17:21;100237.50;;;-3.46;100.00
22283;BME280;11310;51.528;21.204;2023-03-03T03:19:51;100235.81;;;-3.45;100.00
22283;BME280;11310;51.528;21.204;2023-03-03T03:22:21;100222.94;;;-3.50;100.00
22283;BME280;11310;51.528;21.204;2023-03-03T03:24:50;100236.66;;;-3.46;100.00
22283;BME280;11310;51.528;21.204;2023-03-03T03:27:18;100238.41;;;-3.44;100.00
22283;BME280;11310;51.528;21.204;2023-03-03T03:29:52;100243.53;;;-3.44;100.00
22283;BME280;11310;51.528;21.204;2023-03-03T03:32:22;100247.81;;;-3.43;100.00
22283;BME280;11310;51.528;21.204;2023-03-03T03:34:50;100245.22;;;-3.44;100.00
22283;BME280;11310;51.528;21.204;2023-03-03T03:37:19;100240.91;;;-3.47;100.00
22283;BME280;11310;51.528;21.204;2023-03-03T03:39:48;100246.06;;;-3.45;100.00
22283;BME280;11310;51.528;21.204;2023-03-03T03:42:19;100246.06;;;-3.45;100.00
22283;BME280;11310;51.528;21.204;2023-03-03T03:44:47;100246.94;;;-3.45;100.00
22283;BME280;11310;51.528;21.204;2023-03-03T03:47:18;100247.84;;;-3.41;100.00
22283;BME280;11310;51.528;21.204;2023-03-03T03:49:47;100241.88;;;-3.39;100.00
22283;BME280;11310;51.528;21.204;2023-03-03T03:52:16;100243.59;;;-3.38;100.00
22283;BME280;11310;51.528;21.204;2023-03-03T03:54:45;100239.38;;;-3.36;100.00
22283;BME280;11310;51.528;21.204;2023-03-03T03:57:13;100242.81;;;-3.32;100.00
22283;BME280;11310;51.528;21.204;2023-03-03T03:59:43;100240.28;;;-3.31;100.00
22283;BME280;11310;51.528;21.204;2023-03-03T04:02:11;100236.88;;;-3.30;100.00
22283;BME280;11310;51.528;21.204;2023-03-03T04:04:42;100233.44;;;-3.29;100.00
22283;BME280;11310;51.528;21.204;2023-03-03T04:07:12;100233.44;;;-3.29;100.00
22283;BME280;11310;51.528;21.204;2023-03-03T04:09:41;100226.59;;;-3.31;100.00
22283;BME280;11310;51.528;21.204;2023-03-03T04:12:10;100234.31;;;-3.30;100.00
22283;BME280;11310;51.528;21.204;2023-03-03T04:14:39;100232.63;;;-3.29;100.00
22283;BME280;11310;51.528;21.204;2023-03-03T04:17:07;100227.47;;;-3.31;100.00
22283;BME280;11310;51.528;21.204;2023-03-03T04:19:38;100227.47;;;-3.31;100.00
22283;BME280;11310;51.528;21.204;2023-03-03T04:22:08;100234.31;;;-3.28;100.00
22283;BME280;11310;51.528;21.204;2023-03-03T04:24:36;100230.09;;;-3.25;100.00
22283;BME280;11310;51.528;21.204;2023-03-03T04:27:05;100231.84;;;-3.21;100.00
22283;BME280;11310;51.528;21.204;2023-03-03T04:29:36;100231.91;;;-3.18;100.00
22283;BME280;11310;51.528;21.204;2023-03-03T04:32:05;100231.91;;;-3.18;100.00
22283;BME280;11310;51.528;21.204;2023-03-03T04:34:34;100237.88;;;-3.17;100.00
22283;BME280;11310;51.528;21.204;2023-03-03T04:37:03;100235.28;;;-3.19;100.00
22283;BME280;11310;51.528;21.204;2023-03-03T04:39:33;100233.56;;;-3.20;100.00
22283;BME280;11310;51.528;21.204;2023-03-03T04:42:02;100240.41;;;-3.19;100.00
22283;BME280;11310;51.528;21.204;2023-03-03T04:44:31;100237.84;;;-3.20;100.00
22283;BME280;11310;51.528;21.204;2023-03-03T04:46:59;100235.25;;;-3.22;100.00
22283;BME280;11310;51.528;21.204;2023-03-03T04:49:28;100242.09;;;-3.22;100.00
22283;BME280;11310;51.528;21.204;2023-03-03T04:51:58;100242.06;;;-3.24;100.00
22283;BME280;11310;51.528;21.204;2023-03-03T04:54:26;100234.38;;;-3.24;100.00
22283;BME280;11310;51.528;21.204;2023-03-03T04:56:57;100224.97;;;-3.25;100.00
22283;BME280;11310;51.528;21.204;2023-03-03T04:59:25;100224.09;;;-3.25;100.00
22283;BME280;11310;51.528;21.204;2023-03-03T05:01:56;100207.88;;;-3.24;100.00
22283;BME280;11310;51.528;21.204;2023-03-03T05:04:25;100197.59;;;-3.26;100.00
22283;BME280;11310;51.528;21.204;2023-03-03T05:06:53;100192.41;;;-3.29;100.00
22283;BME280;11310;51.528;21.204;2023-03-03T05:09:23;100188.09;;;-3.33;100.00
22283;BME280;11310;51.528;21.204;2023-03-03T05:11:53;100194.91;;;-3.36;100.00
22283;BME280;11310;51.528;21.204;2023-03-03T05:14:23;100205.97;;;-3.39;100.00
22283;BME280;11310;51.528;21.204;2023-03-03T05:16:52;100201.72;;;-3.40;100.00
22283;BME280;11310;51.528;21.204;2023-03-03T05:19:21;100209.41;;;-3.40;100.00
22283;BME280;11310;51.528;21.204;2023-03-03T05:21:51;100209.41;;;-3.37;100.00
22283;BME280;11310;51.528;21.204;2023-03-03T05:24:21;100212.09;;;-3.28;100.00
22283;BME280;11310;51.528;21.204;2023-03-03T05:26:50;100210.56;;;-3.15;100.00
22283;BME280;11310;51.528;21.204;2023-03-03T05:29:19;100214.09;;;-3.04;100.00
22283;BME280;11310;51.528;21.204;2023-03-03T05:31:49;100216.81;;;-2.88;100.00
22283;BME280;11310;51.528;21.204;2023-03-03T05:34:18;100224.69;;;-2.74;100.00
22283;BME280;11310;51.528;21.204;2023-03-03T05:36:47;100211.97;;;-2.61;100.00
22283;BME280;11310;51.528;21.204;2023-03-03T05:39:15;100210.34;;;-2.50;100.00
22283;BME280;11310;51.528;21.204;2023-03-03T05:41:45;100214.72;;;-2.41;100.00
22283;BME280;11310;51.528;21.204;2023-03-03T05:44:13;100212.25;;;-2.31;100.00
22283;BME280;11310;51.528;21.204;2023-03-03T05:46:42;100226.06;;;-2.14;100.00
22283;BME280;11310;51.528;21.204;2023-03-03T05:49:12;100223.63;;;-1.96;100.00
22283;BME280;11310;51.528;21.204;2023-03-03T05:51:41;100209.16;;;-1.82;100.00
22283;BME280;11310;51.528;21.204;2023-03-03T05:54:10;100219.50;;;-1.70;100.00
22283;BME280;11310;51.528;21.204;2023-03-03T05:56:38;100219.59;;;-1.55;100.00
22283;BME280;11310;51.528;21.204;2023-03-03T05:59:07;100221.41;;;-1.39;100.00
22283;BME280;11310;51.528;21.204;2023-03-03T06:01:36;100215.44;;;-1.29;100.00
22283;BME280;11310;51.528;21.204;2023-03-03T06:04:04;100207.75;;;-1.20;100.00
22283;BME280;11310;51.528;21.204;2023-03-03T06:06:35;100203.47;;;-1.10;100.00
22283;BME280;11310;51.528;21.204;2023-03-03T06:09:03;100216.38;;;-1.00;100.00
22283;BME280;11310;51.528;21.204;2023-03-03T06:11:33;100216.44;;;-0.88;100.00
22283;BME280;11310;51.528;21.204;2023-03-03T06:14:03;100213.88;;;-0.76;100.00
22283;BME280;11310;51.528;21.204;2023-03-03T06:16:32;100216.47;;;-0.67;100.00
22283;BME280;11310;51.528;21.204;2023-03-03T06:19:00;100212.19;;;-0.59;100.00
22283;BME280;11310;51.528;21.204;2023-03-03T06:21:29;100215.63;;;-0.51;100.00
22283;BME280;11310;51.528;21.204;2023-03-03T06:23:59;100214.78;;;-0.44;100.00
22283;BME280;11310;51.528;21.204;2023-03-03T06:26:30;100206.19;;;-0.38;100.00
22283;BME280;11310;51.528;21.204;2023-03-03T06:28:59;100215.66;;;-0.33;100.00
22283;BME280;11310;51.528;21.204;2023-03-03T06:31:27;100219.97;;;-0.29;100.00
22283;BME280;11310;51.528;21.204;2023-03-03T06:33:56;100217.38;;;-0.23;100.00
22283;BME280;11310;51.528;21.204;2023-03-03T06:36:25;100220.81;;;-0.19;100.00
22283;BME280;11310;51.528;21.204;2023-03-03T06:38:54;100223.38;;;-0.15;100.00
22283;BME280;11310;51.528;21.204;2023-03-03T06:41:24;100225.13;;;-0.11;100.00
22283;BME280;11310;51.528;21.204;2023-03-03T06:43:52;100217.38;;;-0.06;100.00
22283;BME280;11310;51.528;21.204;2023-03-03T06:46:21;100218.25;;;-0.04;100.00
22283;BME280;11310;51.528;21.204;2023-03-03T06:48:49;100219.09;;;-0.01;100.00
22283;BME280;11310;51.528;21.204;2023-03-03T06:51:33;100213.06;;;0.02;100.00
22283;BME280;11310;51.528;21.204;2023-03-03T06:54:09;100217.38;;;0.06;100.00
22283;BME280;11310;51.528;21.204;2023-03-03T06:56:41;100213.91;;;0.08;100.00
22283;BME280;11310;51.528;21.204;2023-03-03T06:59:13;100212.19;;;0.10;100.00
22283;BME280;11310;51.528;21.204;2023-03-03T07:01:44;100209.63;;;0.17;100.00
22283;BME280;11310;51.528;21.204;2023-03-03T07:04:16;100209.59;;;0.22;100.00
22283;BME280;11310;51.528;21.204;2023-03-03T07:06:49;100206.16;;;0.27;100.00
22283;BME280;11310;51.528;21.204;2023-03-03T07:09:20;100207.88;;;0.28;100.00
22283;BME280;11310;51.528;21.204;2023-03-03T07:11:51;100207.88;;;0.29;100.00
22283;BME280;11310;51.528;21.204;2023-03-03T07:14:21;100210.44;;;0.29;100.00
22283;BME280;11310;51.528;21.204;2023-03-03T07:16:51;100198.38;;;0.29;100.00
22283;BME280;11310;51.528;21.204;2023-03-03T07:19:30;100184.66;;;0.32;100.00
22283;BME280;11310;51.528;21.204;2023-03-03T07:22:01;100192.38;;;0.40;100.00
22283;BME280;11310;51.528;21.204;2023-03-03T07:24:40;100190.59;;;0.51;100.00
22283;BME280;11310;51.528;21.204;2023-03-03T07:27:13;100194.03;;;0.59;100.00
22283;BME280;11310;51.528;21.204;2023-03-03T07:29:45;100190.53;;;0.66;100.00
22283;BME280;11310;51.528;21.204;2023-03-03T07:32:24;100182.78;;;0.70;100.00
22283;BME280;11310;51.528;21.204;2023-03-03T07:34:55;100188.78;;;0.71;100.00
22283;BME280;11310;51.528;21.204;2023-03-03T07:37:34;100192.25;;;0.70;100.00
22283;BME280;11310;51.528;21.204;2023-03-03T07:40:26;100195.69;;;0.72;100.00
22283;BME280;11310;51.528;21.204;2023-03-03T07:42:58;100187.09;;;0.73;100.00
22283;BME280;11310;51.528;21.204;2023-03-03T07:45:36;100197.41;;;0.76;100.00
22283;BME280;11310;51.528;21.204;2023-03-03T07:48:14;100188.78;;;0.78;100.00
22283;BME280;11310;51.528;21.204;2023-03-03T07:50:44;100199.09;;;0.86;100.00
22283;BME280;11310;51.528;21.204;2023-03-03T07:53:22;100200.75;;;0.93;100.00
22283;BME280;11310;51.528;21.204;2023-03-03T07:55:53;100199.88;;;0.97;100.00
22283;BME280;11310;51.528;21.204;2023-03-03T07:58:29;100200.72;;;1.02;100.00
22283;BME280;11310;51.528;21.204;2023-03-03T08:01:34;100192.13;;;0.98;100.00
22283;BME280;11310;51.528;21.204;2023-03-03T08:04:10;100183.56;;;0.92;100.00
22283;BME280;11310;51.528;21.204;2023-03-03T08:06:47;100174.09;;;0.88;100.00
22283;BME280;11310;51.528;21.204;2023-03-03T08:09:47;100173.22;;;0.89;100.00
22283;BME280;11310;51.528;21.204;2023-03-03T08:12:32;100171.50;;;0.91;100.00
22283;BME280;11310;51.528;21.204;2023-03-03T08:15:23;100167.22;;;0.90;100.00
22283;BME280;11310;51.528;21.204;2023-03-03T08:17:53;100181.81;;;0.94;100.00
22283;BME280;11310;51.528;21.204;2023-03-03T08:20:44;100173.16;;;1.04;100.00
22283;BME280;11310;51.528;21.204;2023-03-03T08:23:14;100178.28;;;1.08;100.00
22283;BME280;11310;51.528;21.204;2023-03-03T08:25:44;100184.28;;;1.16;100.00
22283;BME280;11310;51.528;21.204;2023-03-03T08:28:13;100192.81;;;1.26;100.00
22283;BME280;11310;51.528;21.204;2023-03-03T08:30:44;100197.91;;;1.35;100.00
22283;BME280;11310;51.528;21.204;2023-03-03T08:33:13;100198.78;;;1.40;100.00
22283;BME280;11310;51.528;21.204;2023-03-03T08:35:42;100198.75;;;1.43;100.00
22283;BME280;11310;51.528;21.204;2023-03-03T08:38:12;100197.03;;;1.40;100.00
22283;BME280;11310;51.528;21.204;2023-03-03T08:40:41;100194.47;;;1.37;100.00
22283;BME280;11310;51.528;21.204;2023-03-03T08:43:11;100194.47;;;1.37;100.00
22283;BME280;11310;51.528;21.204;2023-03-03T08:45:45;100198.75;;;1.43;100.00
22283;BME280;11310;51.528;21.204;2023-03-03T08:48:15;100200.38;;;1.53;100.00
22283;BME280;11310;51.528;21.204;2023-03-03T08:50:44;100212.38;;;1.64;100.00
22283;BME280;11310;51.528;21.204;2023-03-03T08:53:14;100208.00;;;1.69;100.00
22283;BME280;11310;51.528;21.204;2023-03-03T08:55:43;100216.63;;;1.70;100.00
22283;BME280;11310;51.528;21.204;2023-03-03T08:58:12;100208.88;;;1.73;100.00
22283;BME280;11310;51.528;21.204;2023-03-03T09:00:44;100210.56;;;1.77;100.00
22283;BME280;11310;51.528;21.204;2023-03-03T09:03:16;100216.50;;;1.86;100.00
22283;BME280;11310;51.528;21.204;2023-03-03T09:05:45;100212.13;;;1.97;100.00
22283;BME280;11310;51.528;21.204;2023-03-03T09:08:13;100211.97;;;2.11;100.00
22283;BME280;11310;51.528;21.204;2023-03-03T09:10:42;100218.78;;;2.22;100.00
22283;BME280;11310;51.528;21.204;2023-03-03T09:13:13;100210.13;;;2.22;100.00
22283;BME280;11310;51.528;21.204;2023-03-03T09:15:44;100223.91;;;2.27;100.00
22283;BME280;11310;51.528;21.204;2023-03-03T09:18:16;100223.88;;;2.30;100.00
22283;BME280;11310;51.528;21.204;2023-03-03T09:20:46;100228.13;;;2.35;100.00
22283;BME280;11310;51.528;21.204;2023-03-03T09:23:30;100228.13;;;2.35;100.00
22283;BME280;11310;51.528;21.204;2023-03-03T09:26:25;100218.75;;;2.24;100.00
22283;BME280;11310;51.528;21.204;2023-03-03T09:28:59;100236.00;;;2.23;100.00
22283;BME280;11310;51.528;21.204;2023-03-03T09:31:37;100230.88;;;2.20;100.00
22283;BME280;11310;51.528;21.204;2023-03-03T09:34:20;100229.09;;;2.27;100.00
22283;BME280;11310;51.528;21.204;2023-03-03T09:36:50;100225.53;;;2.37;100.00
22283;BME280;11310;51.528;21.204;2023-03-03T09:39:20;100228.06;;;2.43;100.00
22283;BME280;11310;51.528;21.204;2023-03-03T09:42:14;100217.69;;;2.44;100.00
22283;BME280;11310;51.528;21.204;2023-03-03T09:45:08;100216.78;;;2.47;100.00
22283;BME280;11310;51.528;21.204;2023-03-03T09:47:50;100215.09;;;2.46;100.00
22283;BME280;11310;51.528;21.204;2023-03-03T09:50:34;100226.28;;;2.46;100.00
22283;BME280;11310;51.528;21.204;2023-03-03T09:53:18;100220.28;;;2.46;100.00
22283;BME280;11310;51.528;21.204;2023-03-03T09:55:52;100222.00;;;2.44;100.00
22283;BME280;11310;51.528;21.204;2023-03-03T09:58:47;100221.16;;;2.42;100.00
22283;BME280;11310;51.528;21.204;2023-03-03T10:01:44;100210.81;;;2.43;100.00
22283;BME280;11310;51.528;21.204;2023-03-03T10:04:30;100212.34;;;2.59;100.00
22283;BME280;11310;51.528;21.204;2023-03-03T10:07:16;100212.25;;;2.67;100.00
22283;BME280;11310;51.528;21.204;2023-03-03T10:12:54;100193.97;;;2.79;100.00
22283;BME280;11310;51.528;21.204;2023-03-03T10:15:31;100192.19;;;2.84;100.00
22283;BME280;11310;51.528;21.204;2023-03-03T10:18:12;100186.00;;;2.95;100.00
22283;BME280;11310;51.528;21.204;2023-03-03T10:20:56;100189.38;;;3.00;100.00
22283;BME280;11310;51.528;21.204;2023-03-03T10:23:41;100173.59;;;3.17;100.00
22283;BME280;11310;51.528;21.204;2023-03-03T10:26:20;100166.03;;;4.55;100.00
22283;BME280;11310;51.528;21.204;2023-03-03T10:29:19;100166.09;;;5.69;99.77
22283;BME280;11310;51.528;21.204;2023-03-03T10:31:59;100172.19;;;5.69;95.59
22283;BME280;11310;51.528;21.204;2023-03-03T10:34:49;100175.19;;;5.53;96.02
22283;BME280;11310;51.528;21.204;2023-03-03T10:37:27;100173.44;;;5.15;97.23
22283;BME280;11310;51.528;21.204;2023-03-03T10:40:10;100164.25;;;5.74;96.22
22283;BME280;11310;51.528;21.204;2023-03-03T10:43:10;100159.41;;;5.59;94.48
22283;BME280;11310;51.528;21.204;2023-03-03T10:46:17;100153.16;;;6.65;90.45
22283;BME280;11310;51.528;21.204;2023-03-03T10:51:47;100164.84;;;7.39;86.53
22283;BME280;11310;51.528;21.204;2023-03-03T10:54:32;100165.81;;;6.48;87.44
22283;BME280;11310;51.528;21.204;2023-03-03T10:57:12;100167.25;;;5.94;91.88
22283;BME280;11310;51.528;21.204;2023-03-03T10:59:58;100165.38;;;6.63;89.67
22283;BME280;11310;51.528;21.204;2023-03-03T11:02:37;100152.03;;;7.04;88.31
22283;BME280;11310;51.528;21.204;2023-03-03T11:05:17;100144.06;;;7.36;83.80
22283;BME280;11310;51.528;21.204;2023-03-03T11:07:55;100146.88;;;7.01;87.66
22283;BME280;11310;51.528;21.204;2023-03-03T11:10:36;100143.38;;;7.02;87.48
22283;BME280;11310;51.528;21.204;2023-03-03T11:13:13;100146.88;;;7.01;88.00
22283;BME280;11310;51.528;21.204;2023-03-03T11:16:12;100146.75;;;6.76;87.67
22283;BME280;11310;51.528;21.204;2023-03-03T11:19:05;100132.41;;;5.99;90.71
22283;BME280;11310;51.528;21.204;2023-03-03T11:21:43;100126.94;;;5.75;93.24
22283;BME280;11310;51.528;21.204;2023-03-03T11:24:20;100122.13;;;8.44;84.22
22283;BME280;11310;51.528;21.204;2023-03-03T11:27:04;100122.84;;;10.61;73.37
22283;BME280;11310;51.528;21.204;2023-03-03T11:29:48;100130.56;;;12.76;58.99
22283;BME280;11310;51.528;21.204;2023-03-03T11:32:28;100119.25;;;13.68;55.15
22283;BME280;11310;51.528;21.204;2023-03-03T11:35:12;100120.91;;;13.55;54.02
22283;BME280;11310;51.528;21.204;2023-03-03T11:37:53;100125.56;;;12.71;56.98
22283;BME280;11310;51.528;21.204;2023-03-03T11:40:26;100118.22;;;12.11;61.04
22283;BME280;11310;51.528;21.204;2023-03-03T11:43:03;100133.00;;;12.96;57.72
22283;BME280;11310;51.528;21.204;2023-03-03T11:45:39;100137.97;;;13.02;57.59
22283;BME280;11310;51.528;21.204;2023-03-03T11:48:15;100135.09;;;12.24;61.66
22283;BME280;11310;51.528;21.204;2023-03-03T11:50:53;100132.06;;;12.64;57.14
22283;BME280;11310;51.528;21.204;2023-03-03T11:53:37;100132.47;;;10.99;61.91
22283;BME280;11310;51.528;21.204;2023-03-03T11:56:20;100131.91;;;12.18;59.90
22283;BME280;11310;51.528;21.204;2023-03-03T11:58:59;100132.25;;;12.61;58.06
22283;BME280;11310;51.528;21.204;2023-03-03T12:01:35;100123.84;;;10.77;66.64
22283;BME280;11310;51.528;21.204;2023-03-03T12:04:09;100136.50;;;9.24;74.89
22283;BME280;11310;51.528;21.204;2023-03-03T12:07:01;100126.50;;;10.38;65.09
22283;BME280;11310;51.528;21.204;2023-03-03T12:09:56;100116.44;;;12.29;56.11
22283;BME280;11310;51.528;21.204;2023-03-03T12:12:33;100122.13;;;13.34;53.90
22283;BME280;11310;51.528;21.204;2023-03-03T12:15:14;100115.53;;;13.72;49.66
22283;BME280;11310;51.528;21.204;2023-03-03T12:18:09;100105.44;;;13.94;50.27
22283;BME280;11310;51.528;21.204;2023-03-03T12:20:45;100107.16;;;14.39;51.03
22283;BME280;11310;51.528;21.204;2023-03-03T12:23:40;100107.81;;;13.07;48.78
22283;BME280;11310;51.528;21.204;2023-03-03T12:26:16;100115.50;;;12.79;56.94
22283;BME280;11310;51.528;21.204;2023-03-03T12:28:51;100098.72;;;13.28;56.14
22283;BME280;11310;51.528;21.204;2023-03-03T12:31:31;100105.31;;;14.83;47.23
22283;BME280;11310;51.528;21.204;2023-03-03T12:34:04;100099.72;;;15.01;42.95
22283;BME280;11310;51.528;21.204;2023-03-03T12:39:44;100093.53;;;11.63;57.30
22283;BME280;11310;51.528;21.204;2023-03-03T12:42:29;100092.91;;;9.86;67.00
22283;BME280;11310;51.528;21.204;2023-03-03T12:45:08;100100.50;;;8.39;78.59
22283;BME280;11310;51.528;21.204;2023-03-03T12:47:50;100095.59;;;7.55;83.65
22283;BME280;11310;51.528;21.204;2023-03-03T12:50:26;100103.31;;;7.32;86.83
22283;BME280;11310;51.528;21.204;2023-03-03T12:53:08;100106.44;;;7.15;87.22
22283;BME280;11310;51.528;21.204;2023-03-03T12:55:48;100104.75;;;7.14;85.20
22283;BME280;11310;51.528;21.204;2023-03-03T12:58:28;100101.13;;;6.91;87.51
22283;BME280;11310;51.528;21.204;2023-03-03T13:01:10;100102.81;;;6.64;87.02
22283;BME280;11310;51.528;21.204;2023-03-03T13:03:52;100106.28;;;6.33;89.63
22283;BME280;11310;51.528;21.204;2023-03-03T13:06:27;100104.34;;;6.10;89.01
22283;BME280;11310;51.528;21.204;2023-03-03T13:09:17;100095.41;;;5.87;88.56
22283;BME280;11310;51.528;21.204;2023-03-03T13:11:56;100094.09;;;5.69;91.81
22283;BME280;11310;51.528;21.204;2023-03-03T13:14:34;100090.00;;;5.61;92.09
22283;BME280;11310;51.528;21.204;2023-03-03T13:17:23;100096.34;;;5.49;93.08
22283;BME280;11310;51.528;21.204;2023-03-03T13:19:58;100095.94;;;5.31;93.91
22283;BME280;11310;51.528;21.204;2023-03-03T13:22:35;100099.66;;;5.21;93.82
22283;BME280;11310;51.528;21.204;2023-03-03T13:25:13;100105.13;;;5.07;95.41